createdAt,value
2017-10-28T00:00:14.996Z,0
2017-10-28T00:00:55.458Z,0
2017-10-28T00:01:35.923Z,0
2017-10-28T00:02:16.384Z,0
2017-10-28T00:02:56.816Z,0
2017-10-28T00:03:37.253Z,0
2017-10-28T00:04:17.699Z,0
2017-10-28T00:04:58.167Z,0
2017-10-28T00:05:38.654Z,0
2017-10-28T00:06:19.142Z,0
2017-10-28T00:06:59.633Z,0
2017-10-28T00:07:40.098Z,0
2017-10-28T00:08:20.576Z,0
2017-10-28T00:10:58.643Z,0
2017-10-28T00:11:39.153Z,0
2017-10-28T00:12:19.676Z,0
2017-10-28T00:13:00.114Z,0
2017-10-28T00:13:40.573Z,0
2017-10-28T00:16:18.630Z,0
2017-10-28T00:16:59.127Z,0
2017-10-28T00:17:39.610Z,0
2017-10-28T00:18:20.089Z,0
2017-10-28T00:19:00.549Z,0
2017-10-28T00:19:41.009Z,0
2017-10-28T00:20:21.466Z,0
2017-10-28T00:21:01.886Z,0
2017-10-28T00:21:42.339Z,0
2017-10-28T00:22:22.803Z,0
2017-10-28T00:23:03.270Z,0
2017-10-28T00:23:43.743Z,0
2017-10-28T00:24:24.241Z,0
2017-10-28T00:25:04.729Z,0
2017-10-28T00:25:45.190Z,0
2017-10-28T00:26:25.658Z,0
2017-10-28T00:27:06.148Z,0
2017-10-28T00:27:46.635Z,0
2017-10-28T00:28:27.113Z,0
2017-10-28T00:30:55.003Z,0
2017-10-28T00:31:35.495Z,0
2017-10-28T00:32:15.985Z,0
2017-10-28T00:32:56.462Z,0
2017-10-28T00:33:36.908Z,0
2017-10-28T00:34:17.379Z,0
2017-10-28T00:36:45.303Z,0
2017-10-28T00:37:25.788Z,0
2017-10-28T00:38:06.274Z,0
2017-10-28T00:38:46.788Z,0
2017-10-28T00:39:27.224Z,0
2017-10-28T00:40:07.724Z,0
2017-10-28T00:40:48.189Z,0
2017-10-28T00:41:28.737Z,0
2017-10-28T00:42:09.135Z,0
2017-10-28T00:42:49.601Z,0
2017-10-28T00:43:30.106Z,0
2017-10-28T00:44:10.601Z,0
2017-10-28T00:44:51.053Z,0
2017-10-28T00:45:31.494Z,0
2017-10-28T00:46:11.962Z,0
2017-10-28T00:46:52.425Z,0
2017-10-28T00:47:32.919Z,0
2017-10-28T00:48:13.391Z,0
2017-10-28T00:48:53.874Z,0
2017-10-28T00:49:34.332Z,0
2017-10-28T00:50:14.801Z,0
2017-10-28T00:50:55.220Z,0
2017-10-28T00:53:28.252Z,0
2017-10-28T00:54:08.753Z,0
2017-10-28T00:54:49.206Z,0
2017-10-28T00:55:29.694Z,0
2017-10-28T00:56:10.159Z,0
2017-10-28T00:56:50.629Z,0
2017-10-28T00:59:28.735Z,0
2017-10-28T01:00:09.214Z,0
2017-10-28T01:00:49.699Z,0
2017-10-28T01:01:30.191Z,0
2017-10-28T01:02:10.710Z,0
2017-10-28T01:02:51.175Z,0
2017-10-28T01:03:31.692Z,0
2017-10-28T01:04:12.170Z,0
2017-10-28T01:04:52.667Z,0
2017-10-28T01:05:33.164Z,0
2017-10-28T01:06:13.632Z,0
2017-10-28T01:06:54.132Z,0
2017-10-28T01:07:34.622Z,0
2017-10-28T01:08:15.049Z,0
2017-10-28T01:10:27.799Z,0
2017-10-28T01:11:08.254Z,0
2017-10-28T01:11:48.737Z,0
2017-10-28T01:12:29.224Z,0
2017-10-28T01:13:09.696Z,0
2017-10-28T01:13:50.188Z,0
2017-10-28T01:14:30.698Z,0
2017-10-28T01:15:11.163Z,0
2017-10-28T01:15:51.661Z,0
2017-10-28T01:16:32.116Z,0
2017-10-28T01:17:12.596Z,0
2017-10-28T01:17:53.093Z,0
2017-10-28T01:18:33.578Z,0
2017-10-28T01:19:14.054Z,0
2017-10-28T01:19:54.550Z,0
2017-10-28T01:20:35.060Z,0
2017-10-28T01:21:15.528Z,0
2017-10-28T01:21:56.025Z,0
2017-10-28T01:22:36.503Z,0
2017-10-28T01:23:16.977Z,0
2017-10-28T01:23:58.366Z,0
2017-10-28T01:24:38.847Z,0
2017-10-28T01:25:19.330Z,0
2017-10-28T01:25:59.822Z,0
2017-10-28T01:26:40.307Z,0
2017-10-28T01:27:20.771Z,0
2017-10-28T01:28:01.271Z,0
2017-10-28T01:28:41.751Z,0
2017-10-28T01:29:23.185Z,0
2017-10-28T01:30:03.684Z,0
2017-10-28T01:30:44.178Z,0
2017-10-28T01:31:24.654Z,0
2017-10-28T01:32:05.146Z,0
2017-10-28T01:32:46.559Z,0
2017-10-28T01:33:27.058Z,0
2017-10-28T01:34:07.547Z,0
2017-10-28T01:34:48.041Z,0
2017-10-28T01:35:28.556Z,0
2017-10-28T01:36:08.993Z,0
2017-10-28T01:36:49.490Z,0
2017-10-28T01:37:30.004Z,0
2017-10-28T01:38:10.470Z,0
2017-10-28T01:38:50.945Z,0
2017-10-28T01:39:31.444Z,0
2017-10-28T01:40:11.930Z,0
2017-10-28T01:40:52.401Z,0
2017-10-28T01:41:32.904Z,0
2017-10-28T01:42:13.380Z,0
2017-10-28T01:42:53.886Z,0
2017-10-28T01:43:34.380Z,0
2017-10-28T01:46:02.329Z,0
2017-10-28T01:46:42.802Z,0
2017-10-28T01:47:23.284Z,0
2017-10-28T01:48:03.778Z,0
2017-10-28T01:48:44.248Z,0
2017-10-28T01:49:24.715Z,0
2017-10-28T01:50:05.197Z,0
2017-10-28T01:50:45.625Z,0
2017-10-28T01:53:23.757Z,0
2017-10-28T01:54:04.272Z,0
2017-10-28T01:54:44.716Z,0
2017-10-28T01:55:25.195Z,0
2017-10-28T01:56:05.722Z,0
2017-10-28T01:56:46.191Z,0
2017-10-28T01:57:26.675Z,0
2017-10-28T01:58:07.155Z,0
2017-10-28T01:58:47.658Z,0
2017-10-28T01:59:28.130Z,0
2017-10-28T02:00:08.626Z,0
2017-10-28T02:00:49.129Z,0
2017-10-28T02:01:29.578Z,0
2017-10-28T02:02:10.063Z,0
2017-10-28T02:02:50.540Z,0
2017-10-28T02:03:31.013Z,0
2017-10-28T02:04:11.491Z,0
2017-10-28T02:04:51.982Z,0
2017-10-28T02:05:32.449Z,0
2017-10-28T02:06:12.933Z,0
2017-10-28T02:06:53.412Z,0
2017-10-28T02:07:33.922Z,0
2017-10-28T02:08:14.399Z,0
2017-10-28T02:08:54.889Z,0
2017-10-28T02:09:35.385Z,0
2017-10-28T02:10:15.853Z,0
2017-10-28T02:10:56.328Z,0
2017-10-28T02:11:36.811Z,0
2017-10-28T02:12:17.373Z,0
2017-10-28T02:12:57.781Z,0
2017-10-28T02:13:38.270Z,0
2017-10-28T02:14:18.758Z,0
2017-10-28T02:14:59.242Z,0
2017-10-28T02:15:39.726Z,0
2017-10-28T02:16:20.149Z,0
2017-10-28T02:18:53.202Z,0
2017-10-28T02:19:33.680Z,0
2017-10-28T02:20:14.146Z,0
2017-10-28T02:20:54.655Z,0
2017-10-28T02:21:35.109Z,0
2017-10-28T02:22:15.603Z,0
2017-10-28T02:22:56.057Z,0
2017-10-28T02:23:36.560Z,0
2017-10-28T02:24:17.095Z,0
2017-10-28T02:24:57.540Z,0
2017-10-28T02:25:38.017Z,0
2017-10-28T02:26:18.507Z,0
2017-10-28T02:26:58.978Z,0
2017-10-28T02:27:39.518Z,0
2017-10-28T02:28:19.950Z,0
2017-10-28T02:29:00.425Z,0
2017-10-28T02:29:40.915Z,0
2017-10-28T02:30:21.438Z,0
2017-10-28T02:31:01.948Z,0
2017-10-28T02:31:42.421Z,0
2017-10-28T02:32:22.899Z,0
2017-10-28T02:33:03.396Z,0
2017-10-28T02:33:43.893Z,0
2017-10-28T02:34:24.360Z,0
2017-10-28T02:35:04.824Z,0
2017-10-28T02:35:45.331Z,0
2017-10-28T02:36:25.834Z,0
2017-10-28T02:37:06.295Z,0
2017-10-28T02:37:46.757Z,0
2017-10-28T02:38:27.233Z,0
2017-10-28T02:39:07.710Z,0
2017-10-28T02:39:49.078Z,0
2017-10-28T02:40:29.606Z,0
2017-10-28T02:41:10.078Z,0
2017-10-28T02:41:50.557Z,0
2017-10-28T02:42:31.051Z,0
2017-10-28T02:43:11.520Z,0
2017-10-28T02:43:52.005Z,0
2017-10-28T02:44:32.484Z,0
2017-10-28T02:45:12.940Z,0
2017-10-28T02:45:54.155Z,0
2017-10-28T02:46:34.659Z,0
2017-10-28T02:47:15.138Z,0
2017-10-28T02:47:55.624Z,0
2017-10-28T02:48:37.075Z,0
2017-10-28T02:49:17.544Z,0
2017-10-28T02:49:58.025Z,0
2017-10-28T02:50:38.526Z,0
2017-10-28T02:51:19.053Z,0
2017-10-28T02:51:59.468Z,0
2017-10-28T02:52:39.977Z,0
2017-10-28T02:53:20.454Z,0
2017-10-28T02:54:00.947Z,0
2017-10-28T02:54:41.442Z,0
2017-10-28T02:55:21.946Z,0
2017-10-28T02:56:02.436Z,0
2017-10-28T02:56:42.915Z,0
2017-10-28T02:57:23.403Z,0
2017-10-28T02:58:03.878Z,0
2017-10-28T02:58:44.362Z,0
2017-10-28T02:59:24.820Z,0
2017-10-28T03:00:05.269Z,0
2017-10-28T03:00:45.732Z,0
2017-10-28T03:01:26.231Z,0
2017-10-28T03:02:06.714Z,0
2017-10-28T03:02:47.196Z,0
2017-10-28T03:03:27.678Z,0
2017-10-28T03:04:08.136Z,0
2017-10-28T03:04:48.598Z,0
2017-10-28T03:05:29.059Z,0
2017-10-28T03:07:46.816Z,0
2017-10-28T03:08:27.305Z,0
2017-10-28T03:09:07.790Z,0
2017-10-28T03:09:48.268Z,0
2017-10-28T03:10:28.757Z,0
2017-10-28T03:11:09.235Z,0
2017-10-28T03:11:49.725Z,0
2017-10-28T03:12:30.220Z,0
2017-10-28T03:13:10.713Z,0
2017-10-28T03:13:51.195Z,0
2017-10-28T03:14:31.671Z,0
2017-10-28T03:15:12.129Z,0
2017-10-28T03:15:52.607Z,0
2017-10-28T03:16:33.083Z,0
2017-10-28T03:17:13.575Z,0
2017-10-28T03:17:54.038Z,0
2017-10-28T03:18:34.522Z,0
2017-10-28T03:19:14.977Z,0
2017-10-28T03:21:47.988Z,0
2017-10-28T03:22:28.454Z,0
2017-10-28T03:23:08.934Z,0
2017-10-28T03:23:49.423Z,0
2017-10-28T03:24:29.901Z,0
2017-10-28T03:25:10.444Z,0
2017-10-28T03:25:50.893Z,0
2017-10-28T03:26:31.363Z,0
2017-10-28T03:27:11.842Z,0
2017-10-28T03:29:44.903Z,0
2017-10-28T03:30:25.381Z,0
2017-10-28T03:31:05.865Z,0
2017-10-28T03:31:46.387Z,0
2017-10-28T03:32:26.824Z,0
2017-10-28T03:33:07.310Z,0
2017-10-28T03:33:47.777Z,0
2017-10-28T03:34:28.909Z,0
2017-10-28T03:35:09.390Z,0
2017-10-28T03:35:49.871Z,0
2017-10-28T03:36:30.366Z,0
2017-10-28T03:37:10.852Z,0
2017-10-28T03:37:51.343Z,0
2017-10-28T03:38:31.807Z,0
2017-10-28T03:39:12.251Z,0
2017-10-28T03:41:50.386Z,0
2017-10-28T03:42:30.804Z,0
2017-10-28T03:43:11.296Z,0
2017-10-28T03:43:51.758Z,0
2017-10-28T03:44:32.297Z,0
2017-10-28T03:45:12.735Z,0
2017-10-28T03:45:53.215Z,0
2017-10-28T03:46:34.413Z,0
2017-10-28T03:47:14.904Z,0
2017-10-28T03:47:55.357Z,0
2017-10-28T03:48:35.825Z,0
2017-10-28T03:49:16.293Z,0
2017-10-28T03:49:56.817Z,0
2017-10-28T03:50:37.277Z,0
2017-10-28T03:51:17.784Z,0
2017-10-28T03:51:58.274Z,0
2017-10-28T03:52:38.753Z,0
2017-10-28T03:53:19.257Z,0
2017-10-28T03:53:59.742Z,0
2017-10-28T03:54:40.265Z,0
2017-10-28T03:55:20.706Z,0
2017-10-28T03:56:01.180Z,0
2017-10-28T03:56:41.679Z,0
2017-10-28T03:57:22.181Z,0
2017-10-28T03:58:02.684Z,0
2017-10-28T03:58:43.186Z,0
2017-10-28T03:59:23.626Z,0
2017-10-28T04:00:04.114Z,0
2017-10-28T04:00:44.628Z,0
2017-10-28T04:01:25.064Z,0
2017-10-28T04:03:37.756Z,0
2017-10-28T04:04:18.237Z,0
2017-10-28T04:04:58.702Z,0
2017-10-28T04:05:39.188Z,0
2017-10-28T04:06:19.668Z,0
2017-10-28T04:07:00.178Z,0
2017-10-28T04:07:40.665Z,0
2017-10-28T04:08:21.141Z,0
2017-10-28T04:09:01.624Z,0
2017-10-28T04:09:42.099Z,0
2017-10-28T04:10:22.598Z,0
2017-10-28T04:11:03.084Z,0
2017-10-28T04:11:43.628Z,0
2017-10-28T04:12:24.034Z,0
2017-10-28T04:13:04.502Z,0
2017-10-28T04:13:44.990Z,0
2017-10-28T04:14:25.475Z,0
2017-10-28T04:15:05.963Z,0
2017-10-28T04:15:46.441Z,0
2017-10-28T04:16:26.923Z,0
2017-10-28T04:17:07.410Z,0
2017-10-28T04:17:47.902Z,0
2017-10-28T04:18:28.406Z,0
2017-10-28T04:19:08.893Z,0
2017-10-28T04:19:49.375Z,0
2017-10-28T04:20:29.841Z,0
2017-10-28T04:21:10.311Z,0
2017-10-28T04:21:50.756Z,0
2017-10-28T04:22:31.204Z,0
2017-10-28T04:23:11.638Z,0
2017-10-28T04:23:52.125Z,0
2017-10-28T04:24:32.537Z,0
2017-10-28T04:25:13.001Z,0
2017-10-28T04:25:53.491Z,0
2017-10-28T04:26:33.945Z,0
2017-10-28T04:27:14.404Z,0
2017-10-28T04:27:54.885Z,0
2017-10-28T04:28:35.340Z,0
2017-10-28T04:29:15.785Z,0
2017-10-28T04:29:56.241Z,0
2017-10-28T04:30:36.694Z,0
2017-10-28T04:31:17.178Z,0
2017-10-28T04:31:57.644Z,0
2017-10-28T04:32:38.102Z,0
2017-10-28T04:33:18.554Z,0
2017-10-28T04:35:46.535Z,0
2017-10-28T04:36:27.015Z,0
2017-10-28T04:37:07.519Z,0
2017-10-28T04:37:47.956Z,0
2017-10-28T04:38:28.450Z,0
2017-10-28T04:39:08.910Z,0
2017-10-28T04:39:49.388Z,0
2017-10-28T04:40:29.855Z,0
2017-10-28T04:41:10.312Z,0
2017-10-28T04:41:50.751Z,0
2017-10-28T04:42:31.200Z,0
2017-10-28T04:43:11.645Z,0
2017-10-28T04:43:52.112Z,0
2017-10-28T04:46:30.204Z,0
2017-10-28T04:47:10.668Z,0
2017-10-28T04:47:51.125Z,0
2017-10-28T04:50:19.123Z,0
2017-10-28T04:50:59.603Z,0
2017-10-28T04:51:40.052Z,0
2017-10-28T04:52:20.578Z,0
2017-10-28T04:53:01.063Z,0
2017-10-28T04:53:41.565Z,0
2017-10-28T04:54:22.009Z,0
2017-10-28T04:55:02.477Z,0
2017-10-28T04:55:42.911Z,0
2017-10-28T04:56:23.365Z,0
2017-10-28T04:57:03.825Z,0
2017-10-28T04:57:44.262Z,0
2017-10-28T04:58:24.726Z,0
2017-10-28T04:59:05.175Z,0
2017-10-28T04:59:45.640Z,0
2017-10-28T05:00:26.076Z,0
2017-10-28T05:02:54.067Z,0
2017-10-28T05:03:34.524Z,0
2017-10-28T05:04:15.011Z,0
2017-10-28T05:04:55.460Z,0
2017-10-28T05:05:35.931Z,0
2017-10-28T05:06:16.423Z,0
2017-10-28T05:06:56.916Z,0
2017-10-28T05:09:34.965Z,0
2017-10-28T05:10:15.459Z,0
2017-10-28T05:10:55.933Z,0
2017-10-28T05:11:36.432Z,0
2017-10-28T05:12:16.924Z,0
2017-10-28T05:12:57.406Z,0
2017-10-28T05:13:37.866Z,0
2017-10-28T05:14:18.345Z,0
2017-10-28T05:14:58.830Z,0
2017-10-28T05:15:39.331Z,0
2017-10-28T05:16:19.831Z,0
2017-10-28T05:17:00.321Z,0
2017-10-28T05:17:40.819Z,0
2017-10-28T05:18:21.266Z,0
2017-10-28T05:19:01.720Z,0
2017-10-28T05:19:42.178Z,0
2017-10-28T05:20:22.653Z,0
2017-10-28T05:21:03.099Z,0
2017-10-28T05:21:43.515Z,0
2017-10-28T05:22:23.966Z,0
2017-10-28T05:23:04.417Z,0
2017-10-28T05:23:44.882Z,0
2017-10-28T05:24:25.340Z,0
2017-10-28T05:25:05.800Z,0
2017-10-28T05:27:33.703Z,0
2017-10-28T05:28:14.198Z,0
2017-10-28T05:28:54.646Z,0
2017-10-28T05:29:35.177Z,0
2017-10-28T05:30:15.634Z,0
2017-10-28T05:30:56.090Z,0
2017-10-28T05:31:36.546Z,0
2017-10-28T05:32:16.987Z,0
2017-10-28T05:32:57.483Z,0
2017-10-28T05:35:15.284Z,0
2017-10-28T05:35:55.840Z,0
2017-10-28T05:36:36.343Z,0
2017-10-28T05:37:16.827Z,0
2017-10-28T05:37:57.375Z,0
2017-10-28T05:38:37.881Z,0
2017-10-28T05:39:18.340Z,0
2017-10-28T05:39:58.918Z,0
2017-10-28T05:40:39.475Z,0
2017-10-28T05:41:19.995Z,0
2017-10-28T05:42:00.470Z,0
2017-10-28T05:42:41.064Z,0
2017-10-28T05:43:21.587Z,0
2017-10-28T05:44:02.205Z,0
2017-10-28T05:44:42.683Z,0
2017-10-28T05:45:23.183Z,0
2017-10-28T05:46:03.704Z,0
2017-10-28T05:46:44.233Z,0
2017-10-28T05:47:24.793Z,0
2017-10-28T05:48:05.354Z,0
2017-10-28T05:48:45.921Z,0
2017-10-28T05:49:26.441Z,0
2017-10-28T05:50:06.966Z,0
2017-10-28T05:50:47.494Z,0
2017-10-28T05:51:27.975Z,0
2017-10-28T05:52:08.438Z,0
2017-10-28T05:54:46.559Z,0
2017-10-28T05:55:27.039Z,0
2017-10-28T05:56:07.522Z,0
2017-10-28T05:56:47.964Z,0
2017-10-28T05:57:28.408Z,0
2017-10-28T05:59:46.214Z,0
2017-10-28T06:00:26.693Z,0
2017-10-28T06:01:07.189Z,0
2017-10-28T06:01:47.677Z,0
2017-10-28T06:02:28.151Z,0
2017-10-28T06:03:08.648Z,0
2017-10-28T06:03:49.123Z,0
2017-10-28T06:04:29.630Z,0
2017-10-28T06:05:10.084Z,0
2017-10-28T06:05:50.557Z,0
2017-10-28T06:06:31.023Z,0
2017-10-28T06:07:11.530Z,0
2017-10-28T06:07:51.987Z,0
2017-10-28T06:08:32.452Z,0
2017-10-28T06:09:12.924Z,0
2017-10-28T06:09:53.406Z,0
2017-10-28T06:10:33.877Z,0
2017-10-28T06:13:06.870Z,0
2017-10-28T06:13:47.350Z,5
2017-10-28T06:14:27.866Z,5
2017-10-28T06:15:08.350Z,5
2017-10-28T06:15:48.823Z,5
2017-10-28T06:16:29.313Z,5
2017-10-28T06:17:09.795Z,5
2017-10-28T06:17:50.286Z,5
2017-10-28T06:18:30.764Z,5
2017-10-28T06:19:11.219Z,5
2017-10-28T06:19:51.703Z,5
2017-10-28T06:20:32.150Z,5
2017-10-28T06:21:12.582Z,5
2017-10-28T06:21:53.076Z,10
2017-10-28T06:22:33.501Z,10
2017-10-28T06:23:13.971Z,10
2017-10-28T06:23:54.414Z,10
2017-10-28T06:24:34.889Z,10
2017-10-28T06:26:47.637Z,10
2017-10-28T06:27:28.070Z,15
2017-10-28T06:28:08.539Z,15
2017-10-28T06:30:21.219Z,15
2017-10-28T06:31:01.692Z,20
2017-10-28T06:31:42.167Z,20
2017-10-28T06:32:22.647Z,20
2017-10-28T06:33:03.140Z,20
2017-10-28T06:33:43.639Z,25
2017-10-28T06:34:24.114Z,25
2017-10-28T06:35:04.595Z,25
2017-10-28T06:35:45.086Z,25
2017-10-28T06:36:25.602Z,25
2017-10-28T06:37:06.098Z,25
2017-10-28T06:37:46.529Z,30
2017-10-28T06:38:27.011Z,30
2017-10-28T06:39:07.499Z,30
2017-10-28T06:39:47.997Z,30
2017-10-28T06:40:28.462Z,35
2017-10-28T06:41:08.942Z,35
2017-10-28T06:41:49.434Z,35
2017-10-28T06:42:29.939Z,35
2017-10-28T06:43:10.385Z,35
2017-10-28T06:43:50.872Z,40
2017-10-28T06:44:31.366Z,40
2017-10-28T06:45:11.840Z,45
2017-10-28T06:45:52.294Z,45
2017-10-28T06:46:32.775Z,45
2017-10-28T06:47:13.238Z,50
2017-10-28T06:49:51.294Z,55
2017-10-28T06:50:31.811Z,55
2017-10-28T06:51:12.218Z,55
2017-10-28T06:51:52.693Z,55
2017-10-28T06:52:33.164Z,55
2017-10-28T06:53:13.689Z,60
2017-10-28T06:53:54.182Z,60
2017-10-28T06:54:34.652Z,60
2017-10-28T06:55:15.134Z,65
2017-10-28T06:55:55.610Z,65
2017-10-28T06:56:36.086Z,70
2017-10-28T06:57:16.549Z,70
2017-10-28T06:57:57.044Z,70
2017-10-28T06:58:37.522Z,75
2017-10-28T06:59:17.990Z,75
2017-10-28T06:59:58.452Z,75
2017-10-28T07:00:38.941Z,75
2017-10-28T07:01:19.403Z,75
2017-10-28T07:01:59.875Z,75
2017-10-28T07:02:40.355Z,75
2017-10-28T07:03:20.848Z,75
2017-10-28T07:04:01.333Z,70
2017-10-28T07:04:41.820Z,75
2017-10-28T07:05:22.275Z,75
2017-10-28T07:06:02.751Z,80
2017-10-28T07:06:43.199Z,80
2017-10-28T07:09:16.199Z,95
2017-10-28T07:09:56.733Z,95
2017-10-28T07:10:37.192Z,95
2017-10-28T07:11:17.654Z,95
2017-10-28T07:11:58.130Z,90
2017-10-28T07:12:38.623Z,90
2017-10-28T07:13:19.104Z,85
2017-10-28T07:13:59.592Z,85
2017-10-28T07:14:40.052Z,90
2017-10-28T07:15:20.531Z,90
2017-10-28T07:16:01.022Z,90
2017-10-28T07:16:41.496Z,90
2017-10-28T07:17:21.952Z,90
2017-10-28T07:18:02.439Z,90
2017-10-28T07:18:42.916Z,95
2017-10-28T07:19:23.349Z,95
2017-10-28T07:20:03.794Z,95
2017-10-28T07:20:44.229Z,95
2017-10-28T07:23:17.269Z,100
2017-10-28T07:23:57.741Z,100
2017-10-28T07:24:38.219Z,100
2017-10-28T07:25:18.720Z,100
2017-10-28T07:25:59.185Z,100
2017-10-28T07:26:39.678Z,100
2017-10-28T07:27:20.279Z,100
2017-10-28T07:28:00.666Z,100
2017-10-28T07:30:28.657Z,120
2017-10-28T07:31:09.102Z,120
2017-10-28T07:31:49.530Z,125
2017-10-28T07:32:30.022Z,125
2017-10-28T07:33:10.528Z,130
2017-10-28T07:33:51.008Z,130
2017-10-28T07:34:31.467Z,125
2017-10-28T07:35:11.914Z,125
2017-10-28T07:35:52.408Z,125
2017-10-28T07:36:32.892Z,130
2017-10-28T07:37:13.378Z,130
2017-10-28T07:37:53.847Z,130
2017-10-28T07:38:34.340Z,130
2017-10-28T07:39:14.800Z,125
2017-10-28T07:39:55.235Z,130
2017-10-28T07:40:35.649Z,140
2017-10-28T07:43:08.703Z,160
2017-10-28T07:43:49.153Z,160
2017-10-28T07:46:06.921Z,160
2017-10-28T07:46:47.415Z,155
2017-10-28T07:47:27.856Z,155
2017-10-28T07:48:08.332Z,150
2017-10-28T07:48:48.818Z,150
2017-10-28T07:49:29.295Z,145
2017-10-28T07:50:09.713Z,145
2017-10-28T07:50:50.176Z,145
2017-10-28T07:51:30.653Z,140
2017-10-28T07:52:11.117Z,135
2017-10-28T07:52:51.591Z,130
2017-10-28T07:53:32.055Z,130
2017-10-28T07:54:12.484Z,130
2017-10-28T07:56:40.427Z,145
2017-10-28T07:57:20.966Z,150
2017-10-28T07:58:01.409Z,155
2017-10-28T07:58:42.485Z,155
2017-10-28T07:59:22.983Z,160
2017-10-28T08:00:03.461Z,170
2017-10-28T08:00:43.883Z,170
2017-10-28T08:01:24.336Z,170
2017-10-28T08:02:04.782Z,180
2017-10-28T08:02:45.232Z,185
2017-10-28T08:03:25.697Z,190
2017-10-28T08:05:58.800Z,195
2017-10-28T08:06:39.232Z,190
2017-10-28T08:07:19.722Z,190
2017-10-28T08:08:00.212Z,190
2017-10-28T08:08:40.756Z,195
2017-10-28T08:09:21.126Z,200
2017-10-28T08:10:01.591Z,195
2017-10-28T08:10:42.038Z,200
2017-10-28T08:11:22.490Z,200
2017-10-28T08:12:02.988Z,205
2017-10-28T08:12:43.450Z,205
2017-10-28T08:13:23.941Z,195
2017-10-28T08:14:04.391Z,195
2017-10-28T08:14:44.876Z,200
2017-10-28T08:15:25.351Z,200
2017-10-28T08:16:05.781Z,205
2017-10-28T08:16:46.232Z,210
2017-10-28T08:17:26.666Z,215
2017-10-28T08:18:07.117Z,215
2017-10-28T08:18:47.604Z,215
2017-10-28T08:19:28.028Z,215
2017-10-28T08:20:08.501Z,215
2017-10-28T08:20:48.958Z,215
2017-10-28T08:21:29.448Z,215
2017-10-28T08:22:09.858Z,215
2017-10-28T08:22:50.311Z,220
2017-10-28T08:23:30.757Z,220
2017-10-28T08:25:58.713Z,215
2017-10-28T08:26:39.195Z,215
2017-10-28T08:27:19.680Z,210
2017-10-28T08:28:00.164Z,210
2017-10-28T08:28:40.628Z,205
2017-10-28T08:29:21.270Z,205
2017-10-28T08:31:33.996Z,205
2017-10-28T08:32:14.530Z,200
2017-10-28T08:32:54.964Z,200
2017-10-28T08:33:35.453Z,205
2017-10-28T08:34:15.953Z,210
2017-10-28T08:34:56.400Z,215
2017-10-28T08:35:36.881Z,220
2017-10-28T08:36:17.353Z,225
2017-10-28T08:36:57.845Z,230
2017-10-28T08:37:38.350Z,230
2017-10-28T08:38:18.830Z,235
2017-10-28T08:38:59.288Z,240
2017-10-28T08:39:39.783Z,240
2017-10-28T08:40:20.269Z,240
2017-10-28T08:41:00.763Z,240
2017-10-28T08:41:41.237Z,240
2017-10-28T08:42:21.743Z,235
2017-10-28T08:43:02.215Z,230
2017-10-28T08:43:42.691Z,230
2017-10-28T08:44:23.157Z,240
2017-10-28T08:47:01.234Z,245
2017-10-28T08:47:41.740Z,250
2017-10-28T08:48:22.218Z,255
2017-10-28T08:49:02.730Z,240
2017-10-28T08:49:43.218Z,235
2017-10-28T08:50:23.687Z,235
2017-10-28T08:51:04.165Z,230
2017-10-28T08:51:44.655Z,230
2017-10-28T08:52:25.135Z,220
2017-10-28T08:53:05.627Z,215
2017-10-28T08:53:46.184Z,215
2017-10-28T08:54:26.567Z,215
2017-10-28T08:55:07.072Z,215
2017-10-28T08:55:47.555Z,220
2017-10-28T08:58:20.658Z,230
2017-10-28T08:59:01.133Z,230
2017-10-28T08:59:41.626Z,230
2017-10-28T09:00:22.130Z,230
2017-10-28T09:01:02.618Z,230
2017-10-28T09:01:43.123Z,230
2017-10-28T09:02:23.622Z,230
2017-10-28T09:03:04.085Z,235
2017-10-28T09:03:44.548Z,235
2017-10-28T09:04:25.037Z,235
2017-10-28T09:05:05.546Z,235
2017-10-28T09:05:46.037Z,245
2017-10-28T09:06:26.512Z,245
2017-10-28T09:07:06.997Z,245
2017-10-28T09:07:47.488Z,245
2017-10-28T09:10:20.495Z,250
2017-10-28T09:11:00.983Z,250
2017-10-28T09:11:41.461Z,255
2017-10-28T09:12:22.714Z,250
2017-10-28T09:13:03.176Z,250
2017-10-28T09:13:43.666Z,245
2017-10-28T09:14:24.173Z,250
2017-10-28T09:15:04.635Z,250
2017-10-28T09:15:45.114Z,255
2017-10-28T09:16:25.594Z,265
2017-10-28T09:17:06.061Z,270
2017-10-28T09:17:46.569Z,280
2017-10-28T09:18:27.048Z,295
2017-10-28T09:19:07.554Z,305
2017-10-28T09:19:47.968Z,310
2017-10-28T09:20:28.474Z,315
2017-10-28T09:21:08.934Z,320
2017-10-28T09:21:49.419Z,330
2017-10-28T09:22:29.878Z,325
2017-10-28T09:23:10.319Z,320
2017-10-28T09:25:38.220Z,290
2017-10-28T09:26:19.540Z,270
2017-10-28T09:27:00.016Z,240
2017-10-28T09:27:40.511Z,245
2017-10-28T09:28:21.008Z,250
2017-10-28T09:30:59.133Z,235
2017-10-28T09:31:39.562Z,230
2017-10-28T09:32:20.060Z,215
2017-10-28T09:33:00.559Z,240
2017-10-28T09:33:41.047Z,250
2017-10-28T09:36:19.187Z,220
2017-10-28T09:36:59.683Z,235
2017-10-28T09:37:40.154Z,245
2017-10-28T09:38:20.649Z,280
2017-10-28T09:39:01.111Z,285
2017-10-28T09:39:41.607Z,285
2017-10-28T09:40:22.089Z,280
2017-10-28T09:41:02.577Z,280
2017-10-28T09:41:43.048Z,260
2017-10-28T09:44:21.102Z,230
2017-10-28T09:45:01.580Z,205
2017-10-28T09:45:42.060Z,190
2017-10-28T09:46:22.546Z,200
2017-10-28T09:47:02.988Z,200
2017-10-28T09:47:43.475Z,205
2017-10-28T09:48:23.956Z,210
2017-10-28T09:49:04.450Z,185
2017-10-28T09:49:44.933Z,160
2017-10-28T09:50:25.422Z,150
2017-10-28T09:52:43.244Z,285
2017-10-28T09:53:23.733Z,275
2017-10-28T09:54:04.227Z,265
2017-10-28T09:54:44.717Z,265
2017-10-28T09:55:25.178Z,255
2017-10-28T09:56:05.659Z,260
2017-10-28T09:56:46.127Z,270
2017-10-28T09:57:26.586Z,295
2017-10-28T09:59:59.551Z,290
2017-10-28T10:00:40.059Z,305
2017-10-28T10:01:20.521Z,275
2017-10-28T10:02:00.963Z,265
2017-10-28T10:02:41.428Z,270
2017-10-28T10:03:21.855Z,285
2017-10-28T10:04:02.316Z,265
2017-10-28T10:04:42.801Z,255
2017-10-28T10:05:23.288Z,275
2017-10-28T10:07:51.311Z,285
2017-10-28T10:08:31.820Z,295
2017-10-28T10:09:12.260Z,285
2017-10-28T10:09:52.747Z,260
2017-10-28T10:10:33.217Z,240
2017-10-28T10:11:13.705Z,265
2017-10-28T10:11:54.192Z,250
2017-10-28T10:12:34.668Z,260
2017-10-28T10:13:15.127Z,295
2017-10-28T10:13:55.631Z,275
2017-10-28T10:14:36.119Z,255
2017-10-28T10:15:16.606Z,275
2017-10-28T10:17:54.704Z,325
2017-10-28T10:18:35.180Z,280
2017-10-28T10:19:15.674Z,255
2017-10-28T10:19:56.178Z,265
2017-10-28T10:20:36.666Z,290
2017-10-28T10:21:17.171Z,325
2017-10-28T10:21:57.657Z,350
2017-10-28T10:22:38.152Z,420
2017-10-28T10:23:18.634Z,395
2017-10-28T10:23:59.129Z,375
2017-10-28T10:24:39.614Z,355
2017-10-28T10:25:20.097Z,350
2017-10-28T10:26:01.388Z,335
2017-10-28T10:26:41.866Z,275
2017-10-28T10:28:54.633Z,245
2017-10-28T10:29:35.092Z,240
2017-10-28T10:30:15.577Z,235
2017-10-28T10:30:56.037Z,245
2017-10-28T10:33:34.119Z,210
2017-10-28T10:34:14.655Z,180
2017-10-28T10:34:55.132Z,165
2017-10-28T10:35:35.625Z,160
2017-10-28T10:36:16.102Z,170
2017-10-28T10:36:56.585Z,215
2017-10-28T10:37:37.076Z,255
2017-10-28T10:38:17.515Z,240
2017-10-28T10:38:58.021Z,195
2017-10-28T10:39:38.546Z,195
2017-10-28T10:40:18.965Z,220
2017-10-28T10:41:00.058Z,255
2017-10-28T10:41:40.525Z,270
2017-10-28T10:44:18.605Z,300
2017-10-28T10:44:59.079Z,330
2017-10-28T10:45:39.573Z,340
2017-10-28T10:46:20.069Z,340
2017-10-28T10:48:48.458Z,295
2017-10-28T10:49:28.943Z,285
2017-10-28T10:50:09.441Z,290
2017-10-28T10:50:49.932Z,260
2017-10-28T10:51:30.424Z,265
2017-10-28T10:52:10.890Z,300
2017-10-28T10:52:51.386Z,335
2017-10-28T10:53:31.874Z,375
2017-10-28T10:54:12.376Z,355
2017-10-28T10:54:52.850Z,335
2017-10-28T10:55:33.312Z,295
2017-10-28T10:56:13.804Z,290
2017-10-28T10:56:54.235Z,285
2017-10-28T10:59:12.077Z,415
2017-10-28T10:59:52.567Z,485
2017-10-28T11:00:33.024Z,465
2017-10-28T11:01:13.487Z,470
2017-10-28T11:01:53.946Z,465
2017-10-28T11:02:34.415Z,455
2017-10-28T11:03:14.890Z,450
2017-10-28T11:03:55.348Z,440
2017-10-28T11:04:35.801Z,435
2017-10-28T11:05:16.974Z,435
2017-10-28T11:07:44.942Z,455
2017-10-28T11:08:25.457Z,460
2017-10-28T11:09:06.508Z,460
2017-10-28T11:09:46.977Z,455
2017-10-28T11:10:27.431Z,460
2017-10-28T11:11:07.887Z,460
2017-10-28T11:13:25.692Z,395
2017-10-28T11:14:06.233Z,320
2017-10-28T11:14:46.677Z,295
2017-10-28T11:15:27.176Z,305
2017-10-28T11:16:07.671Z,320
2017-10-28T11:16:48.155Z,315
2017-10-28T11:17:28.655Z,305
2017-10-28T11:18:09.141Z,310
2017-10-28T11:18:49.610Z,295
2017-10-28T11:19:30.106Z,290
2017-10-28T11:20:10.637Z,280
2017-10-28T11:20:51.084Z,265
2017-10-28T11:21:31.569Z,240
2017-10-28T11:22:12.042Z,215